sensor_id;sensor_type;location;lat;lon;timestamp;P1;durP1;ratioP1;P2;durP2;ratioP2
47103;SDS011;32853;52.164;5.400;2023-07-28T00:01:14;18.65;;;8.20;;
47103;SDS011;32853;52.164;5.400;2023-07-28T00:03:45;15.82;;;9.65;;
47103;SDS011;32853;52.164;5.400;2023-07-28T00:06:12;19.65;;;10.80;;
47103;SDS011;32853;52.164;5.400;2023-07-28T00:08:42;17.92;;;8.45;;
47103;SDS011;32853;52.164;5.400;2023-07-28T00:11:20;21.65;;;10.07;;
47103;SDS011;32853;52.164;5.400;2023-07-28T00:16:17;16.10;;;9.68;;
47103;SDS011;32853;52.164;5.400;2023-07-28T00:18:42;13.48;;;9.57;;
47103;SDS011;32853;52.164;5.400;2023-07-28T00:21:10;19.05;;;9.52;;
47103;SDS011;32853;52.164;5.400;2023-07-28T00:23:43;21.60;;;9.85;;
47103;SDS011;32853;52.164;5.400;2023-07-28T00:26:08;21.13;;;9.07;;
47103;SDS011;32853;52.164;5.400;2023-07-28T00:28:34;16.98;;;8.68;;
47103;SDS011;32853;52.164;5.400;2023-07-28T00:33:42;18.73;;;8.13;;
47103;SDS011;32853;52.164;5.400;2023-07-28T00:36:07;17.55;;;7.30;;
47103;SDS011;32853;52.164;5.400;2023-07-28T00:38:32;31.50;;;8.40;;
47103;SDS011;32853;52.164;5.400;2023-07-28T00:40:58;12.23;;;7.50;;
47103;SDS011;32853;52.164;5.400;2023-07-28T00:43:23;12.30;;;7.35;;
47103;SDS011;32853;52.164;5.400;2023-07-28T00:45:53;19.17;;;7.57;;
47103;SDS011;32853;52.164;5.400;2023-07-28T00:48:19;15.65;;;6.22;;
47103;SDS011;32853;52.164;5.400;2023-07-28T00:50:45;10.25;;;6.30;;
47103;SDS011;32853;52.164;5.400;2023-07-28T00:53:15;19.48;;;6.57;;
47103;SDS011;32853;52.164;5.400;2023-07-28T00:55:44;11.18;;;6.90;;
47103;SDS011;32853;52.164;5.400;2023-07-28T00:58:10;17.80;;;6.72;;
47103;SDS011;32853;52.164;5.400;2023-07-28T01:00:44;13.18;;;6.88;;
47103;SDS011;32853;52.164;5.400;2023-07-28T01:03:09;16.67;;;6.53;;
47103;SDS011;32853;52.164;5.400;2023-07-28T01:08:27;13.55;;;6.53;;
47103;SDS011;32853;52.164;5.400;2023-07-28T01:11:00;13.52;;;6.32;;
47103;SDS011;32853;52.164;5.400;2023-07-28T01:13:26;14.75;;;6.72;;
47103;SDS011;32853;52.164;5.400;2023-07-28T01:15:52;9.80;;;6.93;;
47103;SDS011;32853;52.164;5.400;2023-07-28T01:18:18;13.48;;;6.43;;
47103;SDS011;32853;52.164;5.400;2023-07-28T01:20:43;11.98;;;5.57;;
47103;SDS011;32853;52.164;5.400;2023-07-28T01:23:55;14.30;;;6.78;;
47103;SDS011;32853;52.164;5.400;2023-07-28T01:26:11;11.48;;;6.28;;
47103;SDS011;32853;52.164;5.400;2023-07-28T01:28:56;15.55;;;7.63;;
47103;SDS011;32853;52.164;5.400;2023-07-28T01:31:32;17.27;;;7.38;;
47103;SDS011;32853;52.164;5.400;2023-07-28T01:36:46;17.60;;;6.60;;
47103;SDS011;32853;52.164;5.400;2023-07-28T01:39:11;15.27;;;6.70;;
47103;SDS011;32853;52.164;5.400;2023-07-28T01:41:38;10.70;;;6.22;;
47103;SDS011;32853;52.164;5.400;2023-07-28T01:44:08;18.63;;;6.83;;
47103;SDS011;32853;52.164;5.400;2023-07-28T01:46:36;14.93;;;6.38;;
47103;SDS011;32853;52.164;5.400;2023-07-28T01:49:01;21.02;;;7.47;;
47103;SDS011;32853;52.164;5.400;2023-07-28T01:51:26;19.23;;;8.23;;
47103;SDS011;32853;52.164;5.400;2023-07-28T01:53:52;20.35;;;7.07;;
47103;SDS011;32853;52.164;5.400;2023-07-28T01:56:17;18.65;;;6.75;;
47103;SDS011;32853;52.164;5.400;2023-07-28T01:58:42;17.10;;;7.03;;
47103;SDS011;32853;52.164;5.400;2023-07-28T02:01:08;14.18;;;7.03;;
47103;SDS011;32853;52.164;5.400;2023-07-28T02:03:33;9.23;;;6.40;;
47103;SDS011;32853;52.164;5.400;2023-07-28T02:05:58;12.18;;;7.18;;
47103;SDS011;32853;52.164;5.400;2023-07-28T02:08:25;16.50;;;7.78;;
47103;SDS011;32853;52.164;5.400;2023-07-28T02:10:52;18.13;;;7.25;;
47103;SDS011;32853;52.164;5.400;2023-07-28T02:13:18;18.70;;;6.60;;
47103;SDS011;32853;52.164;5.400;2023-07-28T02:15:44;16.80;;;8.43;;
47103;SDS011;32853;52.164;5.400;2023-07-28T02:18:09;14.10;;;6.82;;
47103;SDS011;32853;52.164;5.400;2023-07-28T02:20:34;17.83;;;6.38;;
47103;SDS011;32853;52.164;5.400;2023-07-28T02:23:00;18.30;;;7.63;;
47103;SDS011;32853;52.164;5.400;2023-07-28T02:25:26;21.05;;;6.50;;
47103;SDS011;32853;52.164;5.400;2023-07-28T02:27:51;21.17;;;6.70;;
47103;SDS011;32853;52.164;5.400;2023-07-28T02:30:16;15.43;;;7.05;;
47103;SDS011;32853;52.164;5.400;2023-07-28T02:32:42;20.63;;;7.85;;
47103;SDS011;32853;52.164;5.400;2023-07-28T02:35:08;22.08;;;7.50;;
47103;SDS011;32853;52.164;5.400;2023-07-28T02:37:33;19.42;;;8.38;;
47103;SDS011;32853;52.164;5.400;2023-07-28T02:39:59;24.63;;;8.50;;
47103;SDS011;32853;52.164;5.400;2023-07-28T02:42:24;17.23;;;7.47;;
47103;SDS011;32853;52.164;5.400;2023-07-28T02:44:50;15.48;;;7.80;;
47103;SDS011;32853;52.164;5.400;2023-07-28T02:47:15;18.85;;;8.50;;
47103;SDS011;32853;52.164;5.400;2023-07-28T02:49:41;17.15;;;8.52;;
47103;SDS011;32853;52.164;5.400;2023-07-28T02:52:15;24.33;;;9.38;;
47103;SDS011;32853;52.164;5.400;2023-07-28T02:54:41;20.50;;;8.95;;
47103;SDS011;32853;52.164;5.400;2023-07-28T02:57:07;19.23;;;7.88;;
47103;SDS011;32853;52.164;5.400;2023-07-28T02:59:39;20.00;;;8.75;;
47103;SDS011;32853;52.164;5.400;2023-07-28T03:02:22;23.30;;;8.93;;
47103;SDS011;32853;52.164;5.400;2023-07-28T03:04:48;22.95;;;8.80;;
47103;SDS011;32853;52.164;5.400;2023-07-28T03:07:13;26.98;;;7.93;;
47103;SDS011;32853;52.164;5.400;2023-07-28T03:09:38;25.52;;;9.82;;
47103;SDS011;32853;52.164;5.400;2023-07-28T03:12:18;21.55;;;8.95;;
47103;SDS011;32853;52.164;5.400;2023-07-28T03:14:43;23.52;;;8.35;;
47103;SDS011;32853;52.164;5.400;2023-07-28T03:17:09;21.70;;;7.65;;
47103;SDS011;32853;52.164;5.400;2023-07-28T03:19:34;26.85;;;9.50;;
47103;SDS011;32853;52.164;5.400;2023-07-28T03:22:02;18.45;;;8.57;;
47103;SDS011;32853;52.164;5.400;2023-07-28T03:24:27;25.55;;;9.70;;
47103;SDS011;32853;52.164;5.400;2023-07-28T03:26:52;20.63;;;9.00;;
47103;SDS011;32853;52.164;5.400;2023-07-28T03:29:18;19.38;;;7.75;;
47103;SDS011;32853;52.164;5.400;2023-07-28T03:31:43;27.13;;;8.95;;
47103;SDS011;32853;52.164;5.400;2023-07-28T03:34:08;30.67;;;9.43;;
47103;SDS011;32853;52.164;5.400;2023-07-28T03:36:34;22.83;;;8.73;;
47103;SDS011;32853;52.164;5.400;2023-07-28T03:38:59;27.33;;;9.10;;
47103;SDS011;32853;52.164;5.400;2023-07-28T03:41:24;22.20;;;8.15;;
47103;SDS011;32853;52.164;5.400;2023-07-28T03:43:50;32.25;;;9.18;;
47103;SDS011;32853;52.164;5.400;2023-07-28T03:46:15;22.08;;;8.50;;
47103;SDS011;32853;52.164;5.400;2023-07-28T03:48:41;27.27;;;8.70;;
47103;SDS011;32853;52.164;5.400;2023-07-28T03:51:11;31.42;;;9.77;;
47103;SDS011;32853;52.164;5.400;2023-07-28T03:53:37;26.30;;;9.15;;
47103;SDS011;32853;52.164;5.400;2023-07-28T03:58:55;23.13;;;11.23;;
47103;SDS011;32853;52.164;5.400;2023-07-28T04:01:21;20.77;;;9.77;;
47103;SDS011;32853;52.164;5.400;2023-07-28T04:03:47;35.47;;;11.32;;
47103;SDS011;32853;52.164;5.400;2023-07-28T04:06:15;32.80;;;13.55;;
47103;SDS011;32853;52.164;5.400;2023-07-28T04:08:41;28.83;;;10.50;;
47103;SDS011;32853;52.164;5.400;2023-07-28T04:11:06;27.38;;;11.10;;
47103;SDS011;32853;52.164;5.400;2023-07-28T04:13:32;29.02;;;10.68;;
47103;SDS011;32853;52.164;5.400;2023-07-28T04:15:59;39.83;;;13.20;;
47103;SDS011;32853;52.164;5.400;2023-07-28T04:18:29;36.95;;;12.13;;
47103;SDS011;32853;52.164;5.400;2023-07-28T04:20:56;29.50;;;11.07;;
47103;SDS011;32853;52.164;5.400;2023-07-28T04:23:25;32.28;;;11.15;;
47103;SDS011;32853;52.164;5.400;2023-07-28T04:25:50;34.58;;;11.60;;
47103;SDS011;32853;52.164;5.400;2023-07-28T04:28:31;29.48;;;12.02;;
47103;SDS011;32853;52.164;5.400;2023-07-28T04:30:56;32.42;;;12.02;;
47103;SDS011;32853;52.164;5.400;2023-07-28T04:33:24;32.47;;;11.52;;
47103;SDS011;32853;52.164;5.400;2023-07-28T04:35:57;20.75;;;10.65;;
47103;SDS011;32853;52.164;5.400;2023-07-28T04:38:24;29.45;;;11.52;;
47103;SDS011;32853;52.164;5.400;2023-07-28T04:40:49;34.70;;;11.82;;
47103;SDS011;32853;52.164;5.400;2023-07-28T04:43:15;29.20;;;10.90;;
47103;SDS011;32853;52.164;5.400;2023-07-28T04:45:50;34.30;;;12.32;;
47103;SDS011;32853;52.164;5.400;2023-07-28T04:48:26;33.38;;;10.50;;
47103;SDS011;32853;52.164;5.400;2023-07-28T04:50:54;36.30;;;11.82;;
47103;SDS011;32853;52.164;5.400;2023-07-28T04:56:09;31.77;;;11.75;;
47103;SDS011;32853;52.164;5.400;2023-07-28T04:58:36;31.52;;;11.25;;
47103;SDS011;32853;52.164;5.400;2023-07-28T05:01:05;32.08;;;12.07;;
47103;SDS011;32853;52.164;5.400;2023-07-28T05:05:59;32.75;;;11.10;;
47103;SDS011;32853;52.164;5.400;2023-07-28T05:08:24;32.83;;;13.45;;
47103;SDS011;32853;52.164;5.400;2023-07-28T05:10:50;49.33;;;12.98;;
47103;SDS011;32853;52.164;5.400;2023-07-28T05:13:22;29.13;;;11.40;;
47103;SDS011;32853;52.164;5.400;2023-07-28T05:15:48;32.65;;;12.05;;
47103;SDS011;32853;52.164;5.400;2023-07-28T05:18:13;27.30;;;11.40;;
47103;SDS011;32853;52.164;5.400;2023-07-28T05:20:39;27.38;;;10.82;;
47103;SDS011;32853;52.164;5.400;2023-07-28T05:23:05;39.10;;;13.13;;
47103;SDS011;32853;52.164;5.400;2023-07-28T05:25:42;44.10;;;12.88;;
47103;SDS011;32853;52.164;5.400;2023-07-28T05:28:07;46.05;;;12.68;;
47103;SDS011;32853;52.164;5.400;2023-07-28T05:30:32;28.27;;;11.80;;
47103;SDS011;32853;52.164;5.400;2023-07-28T05:32:58;26.33;;;12.43;;
47103;SDS011;32853;52.164;5.400;2023-07-28T05:35:23;29.05;;;11.55;;
47103;SDS011;32853;52.164;5.400;2023-07-28T05:37:48;34.90;;;11.27;;
47103;SDS011;32853;52.164;5.400;2023-07-28T05:40:14;45.65;;;11.90;;
47103;SDS011;32853;52.164;5.400;2023-07-28T05:42:47;23.88;;;11.82;;
47103;SDS011;32853;52.164;5.400;2023-07-28T05:45:23;34.08;;;10.93;;
47103;SDS011;32853;52.164;5.400;2023-07-28T05:47:49;37.85;;;10.45;;
47103;SDS011;32853;52.164;5.400;2023-07-28T05:50:16;25.80;;;11.65;;
47103;SDS011;32853;52.164;5.400;2023-07-28T05:52:42;34.33;;;11.55;;
47103;SDS011;32853;52.164;5.400;2023-07-28T05:55:19;36.97;;;10.48;;
47103;SDS011;32853;52.164;5.400;2023-07-28T05:57:44;29.05;;;10.05;;
47103;SDS011;32853;52.164;5.400;2023-07-28T06:00:10;25.35;;;9.52;;
47103;SDS011;32853;52.164;5.400;2023-07-28T06:02:36;23.52;;;8.95;;
47103;SDS011;32853;52.164;5.400;2023-07-28T06:05:02;22.20;;;9.15;;
47103;SDS011;32853;52.164;5.400;2023-07-28T06:07:28;20.17;;;9.07;;
47103;SDS011;32853;52.164;5.400;2023-07-28T06:09:53;31.13;;;9.10;;
47103;SDS011;32853;52.164;5.400;2023-07-28T06:12:27;25.08;;;10.43;;
47103;SDS011;32853;52.164;5.400;2023-07-28T06:14:58;18.55;;;9.05;;
47103;SDS011;32853;52.164;5.400;2023-07-28T06:17:27;22.02;;;9.25;;
47103;SDS011;32853;52.164;5.400;2023-07-28T06:19:53;20.08;;;9.15;;
47103;SDS011;32853;52.164;5.400;2023-07-28T06:22:19;24.38;;;9.50;;
47103;SDS011;32853;52.164;5.400;2023-07-28T06:24:48;27.50;;;10.23;;
47103;SDS011;32853;52.164;5.400;2023-07-28T06:27:13;29.02;;;9.13;;
47103;SDS011;32853;52.164;5.400;2023-07-28T06:29:39;24.42;;;10.75;;
47103;SDS011;32853;52.164;5.400;2023-07-28T06:32:05;24.92;;;10.45;;
47103;SDS011;32853;52.164;5.400;2023-07-28T06:34:45;25.27;;;8.90;;
47103;SDS011;32853;52.164;5.400;2023-07-28T06:37:10;32.80;;;9.57;;
47103;SDS011;32853;52.164;5.400;2023-07-28T06:39:36;22.65;;;8.98;;
47103;SDS011;32853;52.164;5.400;2023-07-28T06:42:13;26.05;;;10.05;;
47103;SDS011;32853;52.164;5.400;2023-07-28T06:44:38;24.48;;;9.13;;
47103;SDS011;32853;52.164;5.400;2023-07-28T06:49:40;23.67;;;9.57;;
47103;SDS011;32853;52.164;5.400;2023-07-28T06:52:05;25.27;;;8.27;;
47103;SDS011;32853;52.164;5.400;2023-07-28T06:57:12;23.17;;;10.93;;
47103;SDS011;32853;52.164;5.400;2023-07-28T06:59:37;18.70;;;8.95;;
47103;SDS011;32853;52.164;5.400;2023-07-28T07:04:55;20.02;;;9.82;;
47103;SDS011;32853;52.164;5.400;2023-07-28T07:07:29;21.58;;;9.13;;
47103;SDS011;32853;52.164;5.400;2023-07-28T07:09:55;25.02;;;10.25;;
47103;SDS011;32853;52.164;5.400;2023-07-28T07:12:24;22.08;;;9.98;;
47103;SDS011;32853;52.164;5.400;2023-07-28T07:14:50;18.23;;;8.45;;
47103;SDS011;32853;52.164;5.400;2023-07-28T07:17:16;26.08;;;9.98;;
47103;SDS011;32853;52.164;5.400;2023-07-28T07:19:41;19.20;;;9.38;;
47103;SDS011;32853;52.164;5.400;2023-07-28T07:22:06;16.20;;;9.00;;
47103;SDS011;32853;52.164;5.400;2023-07-28T07:24:32;26.40;;;10.05;;
47103;SDS011;32853;52.164;5.400;2023-07-28T07:26:58;22.85;;;9.65;;
47103;SDS011;32853;52.164;5.400;2023-07-28T07:29:23;25.17;;;9.77;;
47103;SDS011;32853;52.164;5.400;2023-07-28T07:34:30;24.48;;;10.95;;
47103;SDS011;32853;52.164;5.400;2023-07-28T07:36:55;23.98;;;10.57;;
47103;SDS011;32853;52.164;5.400;2023-07-28T07:39:22;30.70;;;13.73;;
47103;SDS011;32853;52.164;5.400;2023-07-28T07:41:52;27.48;;;10.57;;
47103;SDS011;32853;52.164;5.400;2023-07-28T07:44:18;22.23;;;10.65;;
47103;SDS011;32853;52.164;5.400;2023-07-28T07:47:00;23.88;;;10.90;;
47103;SDS011;32853;52.164;5.400;2023-07-28T07:51:56;33.40;;;12.10;;
47103;SDS011;32853;52.164;5.400;2023-07-28T07:57:14;20.00;;;12.10;;
47103;SDS011;32853;52.164;5.400;2023-07-28T07:59:39;24.55;;;10.85;;
47103;SDS011;32853;52.164;5.400;2023-07-28T08:02:12;21.55;;;9.80;;
47103;SDS011;32853;52.164;5.400;2023-07-28T08:04:38;23.33;;;9.48;;
47103;SDS011;32853;52.164;5.400;2023-07-28T08:07:04;20.92;;;11.27;;
47103;SDS011;32853;52.164;5.400;2023-07-28T08:09:37;16.90;;;9.18;;
47103;SDS011;32853;52.164;5.400;2023-07-28T08:12:12;19.50;;;9.27;;
47103;SDS011;32853;52.164;5.400;2023-07-28T08:17:14;15.63;;;7.60;;
47103;SDS011;32853;52.164;5.400;2023-07-28T08:19:39;16.38;;;8.82;;
47103;SDS011;32853;52.164;5.400;2023-07-28T08:25:16;21.73;;;8.30;;
47103;SDS011;32853;52.164;5.400;2023-07-28T08:27:46;16.45;;;7.25;;
47103;SDS011;32853;52.164;5.400;2023-07-28T08:30:12;17.00;;;7.57;;
47103;SDS011;32853;52.164;5.400;2023-07-28T08:32:38;14.18;;;7.70;;
47103;SDS011;32853;52.164;5.400;2023-07-28T08:35:13;22.73;;;7.93;;
47103;SDS011;32853;52.164;5.400;2023-07-28T08:37:38;16.45;;;7.20;;
47103;SDS011;32853;52.164;5.400;2023-07-28T08:40:12;8.88;;;5.80;;
47103;SDS011;32853;52.164;5.400;2023-07-28T08:42:38;16.80;;;6.60;;
47103;SDS011;32853;52.164;5.400;2023-07-28T08:45:05;18.13;;;5.88;;
47103;SDS011;32853;52.164;5.400;2023-07-28T08:47:33;13.63;;;4.90;;
47103;SDS011;32853;52.164;5.400;2023-07-28T08:49:59;12.63;;;5.53;;
47103;SDS011;32853;52.164;5.400;2023-07-28T08:52:24;11.93;;;6.53;;
47103;SDS011;32853;52.164;5.400;2023-07-28T08:54:51;11.52;;;5.28;;
47103;SDS011;32853;52.164;5.400;2023-07-28T08:57:16;12.88;;;4.20;;
47103;SDS011;32853;52.164;5.400;2023-07-28T08:59:44;10.68;;;3.70;;
47103;SDS011;32853;52.164;5.400;2023-07-28T09:02:13;12.35;;;4.10;;
47103;SDS011;32853;52.164;5.400;2023-07-28T09:04:40;10.48;;;3.38;;
47103;SDS011;32853;52.164;5.400;2023-07-28T09:07:06;10.50;;;2.80;;
47103;SDS011;32853;52.164;5.400;2023-07-28T09:09:32;12.38;;;2.58;;
47103;SDS011;32853;52.164;5.400;2023-07-28T09:11:59;3.83;;;1.95;;
47103;SDS011;32853;52.164;5.400;2023-07-28T09:14:25;6.53;;;2.22;;
47103;SDS011;32853;52.164;5.400;2023-07-28T09:16:50;5.03;;;1.60;;
47103;SDS011;32853;52.164;5.400;2023-07-28T09:19:16;7.13;;;2.00;;
47103;SDS011;32853;52.164;5.400;2023-07-28T09:21:43;4.88;;;1.92;;
47103;SDS011;32853;52.164;5.400;2023-07-28T09:24:11;7.35;;;2.00;;
47103;SDS011;32853;52.164;5.400;2023-07-28T09:26:42;3.05;;;1.25;;
47103;SDS011;32853;52.164;5.400;2023-07-28T09:29:19;6.18;;;1.70;;
47103;SDS011;32853;52.164;5.400;2023-07-28T09:31:46;3.25;;;1.50;;
47103;SDS011;32853;52.164;5.400;2023-07-28T09:34:23;7.20;;;2.35;;
47103;SDS011;32853;52.164;5.400;2023-07-28T09:36:52;24.88;;;2.88;;
47103;SDS011;32853;52.164;5.400;2023-07-28T09:39:20;3.88;;;1.88;;
47103;SDS011;32853;52.164;5.400;2023-07-28T09:41:46;7.15;;;2.08;;
47103;SDS011;32853;52.164;5.400;2023-07-28T09:44:12;4.95;;;1.58;;
47103;SDS011;32853;52.164;5.400;2023-07-28T09:46:49;10.02;;;1.77;;
47103;SDS011;32853;52.164;5.400;2023-07-28T09:49:16;11.23;;;1.77;;
47103;SDS011;32853;52.164;5.400;2023-07-28T09:51:46;8.95;;;2.13;;
47103;SDS011;32853;52.164;5.400;2023-07-28T09:54:20;12.73;;;2.35;;
47103;SDS011;32853;52.164;5.400;2023-07-28T09:56:57;7.43;;;2.35;;
47103;SDS011;32853;52.164;5.400;2023-07-28T09:59:24;4.20;;;1.58;;
47103;SDS011;32853;52.164;5.400;2023-07-28T10:01:59;5.18;;;2.03;;
47103;SDS011;32853;52.164;5.400;2023-07-28T10:04:44;4.63;;;1.48;;
47103;SDS011;32853;52.164;5.400;2023-07-28T10:07:09;5.63;;;1.63;;
47103;SDS011;32853;52.164;5.400;2023-07-28T10:09:35;4.43;;;1.85;;
47103;SDS011;32853;52.164;5.400;2023-07-28T10:12:23;4.80;;;2.20;;
47103;SDS011;32853;52.164;5.400;2023-07-28T10:15:02;6.47;;;3.97;;
47103;SDS011;32853;52.164;5.400;2023-07-28T10:17:32;5.22;;;2.22;;
47103;SDS011;32853;52.164;5.400;2023-07-28T10:20:26;5.43;;;2.50;;
47103;SDS011;32853;52.164;5.400;2023-07-28T10:25:45;6.50;;;2.80;;
47103;SDS011;32853;52.164;5.400;2023-07-28T10:30:56;10.70;;;3.88;;
47103;SDS011;32853;52.164;5.400;2023-07-28T10:35:57;9.90;;;2.97;;
47103;SDS011;32853;52.164;5.400;2023-07-28T10:38:45;3.72;;;2.08;;
47103;SDS011;32853;52.164;5.400;2023-07-28T10:43:38;4.57;;;1.73;;
47103;SDS011;32853;52.164;5.400;2023-07-28T10:46:05;3.15;;;1.85;;
47103;SDS011;32853;52.164;5.400;2023-07-28T10:48:34;8.70;;;3.28;;
47103;SDS011;32853;52.164;5.400;2023-07-28T10:51:05;5.53;;;2.90;;
47103;SDS011;32853;52.164;5.400;2023-07-28T10:53:34;5.35;;;1.98;;
47103;SDS011;32853;52.164;5.400;2023-07-28T10:56:02;5.80;;;2.83;;
47103;SDS011;32853;52.164;5.400;2023-07-28T10:58:31;4.55;;;2.30;;
47103;SDS011;32853;52.164;5.400;2023-07-28T11:01:02;3.53;;;2.35;;
47103;SDS011;32853;52.164;5.400;2023-07-28T11:03:28;3.95;;;2.75;;
47103;SDS011;32853;52.164;5.400;2023-07-28T11:06:00;4.22;;;2.78;;
47103;SDS011;32853;52.164;5.400;2023-07-28T11:08:28;6.35;;;3.00;;
47103;SDS011;32853;52.164;5.400;2023-07-28T11:10:53;4.10;;;2.67;;
47103;SDS011;32853;52.164;5.400;2023-07-28T11:13:25;8.27;;;2.38;;
47103;SDS011;32853;52.164;5.400;2023-07-28T11:15:52;3.30;;;2.10;;
47103;SDS011;32853;52.164;5.400;2023-07-28T11:18:18;8.43;;;2.92;;
47103;SDS011;32853;52.164;5.400;2023-07-28T11:20:44;5.90;;;2.95;;
47103;SDS011;32853;52.164;5.400;2023-07-28T11:23:09;6.05;;;2.50;;
47103;SDS011;32853;52.164;5.400;2023-07-28T11:25:41;3.75;;;2.25;;
47103;SDS011;32853;52.164;5.400;2023-07-28T11:28:09;9.30;;;3.25;;
47103;SDS011;32853;52.164;5.400;2023-07-28T11:30:38;5.10;;;2.80;;
47103;SDS011;32853;52.164;5.400;2023-07-28T11:33:10;7.65;;;3.15;;
47103;SDS011;32853;52.164;5.400;2023-07-28T11:35:38;6.63;;;3.27;;
47103;SDS011;32853;52.164;5.400;2023-07-28T11:38:05;7.97;;;3.47;;
47103;SDS011;32853;52.164;5.400;2023-07-28T11:40:31;5.47;;;2.55;;
47103;SDS011;32853;52.164;5.400;2023-07-28T11:42:58;4.72;;;2.35;;
47103;SDS011;32853;52.164;5.400;2023-07-28T11:45:23;5.30;;;3.08;;
47103;SDS011;32853;52.164;5.400;2023-07-28T11:48:05;4.95;;;2.50;;
47103;SDS011;32853;52.164;5.400;2023-07-28T11:50:35;7.38;;;3.55;;
47103;SDS011;32853;52.164;5.400;2023-07-28T11:55:45;6.07;;;3.17;;
47103;SDS011;32853;52.164;5.400;2023-07-28T11:58:19;9.90;;;3.03;;
47103;SDS011;32853;52.164;5.400;2023-07-28T12:00:45;5.50;;;2.35;;
47103;SDS011;32853;52.164;5.400;2023-07-28T12:03:11;6.15;;;2.22;;
47103;SDS011;32853;52.164;5.400;2023-07-28T12:05:37;8.07;;;2.13;;
47103;SDS011;32853;52.164;5.400;2023-07-28T12:08:10;4.68;;;1.58;;
47103;SDS011;32853;52.164;5.400;2023-07-28T12:10:37;4.28;;;2.15;;
47103;SDS011;32853;52.164;5.400;2023-07-28T12:13:08;9.65;;;2.67;;
47103;SDS011;32853;52.164;5.400;2023-07-28T12:15:44;6.55;;;1.83;;
47103;SDS011;32853;52.164;5.400;2023-07-28T12:18:10;4.40;;;2.40;;
47103;SDS011;32853;52.164;5.400;2023-07-28T12:20:48;7.63;;;2.03;;
47103;SDS011;32853;52.164;5.400;2023-07-28T12:23:16;4.50;;;2.22;;
47103;SDS011;32853;52.164;5.400;2023-07-28T12:25:44;5.25;;;2.10;;
47103;SDS011;32853;52.164;5.400;2023-07-28T12:28:12;4.65;;;2.20;;
47103;SDS011;32853;52.164;5.400;2023-07-28T12:30:42;4.30;;;1.90;;
47103;SDS011;32853;52.164;5.400;2023-07-28T12:33:10;4.78;;;3.00;;
47103;SDS011;32853;52.164;5.400;2023-07-28T12:35:37;5.47;;;2.00;;
47103;SDS011;32853;52.164;5.400;2023-07-28T12:38:02;7.40;;;2.90;;
47103;SDS011;32853;52.164;5.400;2023-07-28T12:40:39;6.70;;;2.40;;
47103;SDS011;32853;52.164;5.400;2023-07-28T12:43:09;5.35;;;2.45;;
47103;SDS011;32853;52.164;5.400;2023-07-28T12:45:47;6.78;;;2.25;;
47103;SDS011;32853;52.164;5.400;2023-07-28T12:48:16;4.97;;;2.00;;
47103;SDS011;32853;52.164;5.400;2023-07-28T12:50:41;6.38;;;3.25;;
47103;SDS011;32853;52.164;5.400;2023-07-28T12:53:06;6.15;;;2.40;;
47103;SDS011;32853;52.164;5.400;2023-07-28T12:55:32;7.82;;;2.80;;
47103;SDS011;32853;52.164;5.400;2023-07-28T12:58:02;4.50;;;2.38;;
47103;SDS011;32853;52.164;5.400;2023-07-28T13:03:29;6.13;;;2.80;;
47103;SDS011;32853;52.164;5.400;2023-07-28T13:05:55;4.45;;;2.45;;
47103;SDS011;32853;52.164;5.400;2023-07-28T13:13:54;5.18;;;2.60;;
47103;SDS011;32853;52.164;5.400;2023-07-28T13:16:22;10.10;;;2.55;;
47103;SDS011;32853;52.164;5.400;2023-07-28T13:18:57;5.07;;;2.83;;
47103;SDS011;32853;52.164;5.400;2023-07-28T13:21:30;6.10;;;2.58;;
47103;SDS011;32853;52.164;5.400;2023-07-28T13:23:58;4.68;;;1.92;;
47103;SDS011;32853;52.164;5.400;2023-07-28T13:26:32;2.50;;;1.70;;
47103;SDS011;32853;52.164;5.400;2023-07-28T13:29:10;4.05;;;1.75;;
47103;SDS011;32853;52.164;5.400;2023-07-28T13:31:38;6.43;;;1.45;;
47103;SDS011;32853;52.164;5.400;2023-07-28T13:34:04;4.30;;;1.88;;
47103;SDS011;32853;52.164;5.400;2023-07-28T13:36:32;5.88;;;1.63;;
47103;SDS011;32853;52.164;5.400;2023-07-28T13:38:58;3.95;;;1.58;;
47103;SDS011;32853;52.164;5.400;2023-07-28T13:41:23;4.30;;;1.48;;
47103;SDS011;32853;52.164;5.400;2023-07-28T13:43:49;5.38;;;1.42;;
47103;SDS011;32853;52.164;5.400;2023-07-28T13:46:17;8.02;;;1.50;;
47103;SDS011;32853;52.164;5.400;2023-07-28T13:48:42;6.72;;;1.70;;
47103;SDS011;32853;52.164;5.400;2023-07-28T13:51:07;3.38;;;1.90;;
47103;SDS011;32853;52.164;5.400;2023-07-28T13:53:34;7.40;;;1.85;;
47103;SDS011;32853;52.164;5.400;2023-07-28T13:56:08;4.93;;;1.60;;
47103;SDS011;32853;52.164;5.400;2023-07-28T13:58:40;4.72;;;1.75;;
47103;SDS011;32853;52.164;5.400;2023-07-28T14:01:09;3.58;;;1.80;;
47103;SDS011;32853;52.164;5.400;2023-07-28T14:03:36;3.30;;;1.45;;
47103;SDS011;32853;52.164;5.400;2023-07-28T14:06:04;2.60;;;1.23;;
47103;SDS011;32853;52.164;5.400;2023-07-28T14:08:29;7.95;;;1.98;;
47103;SDS011;32853;52.164;5.400;2023-07-28T14:11:00;5.93;;;1.55;;
47103;SDS011;32853;52.164;5.400;2023-07-28T14:13:26;3.58;;;1.77;;
47103;SDS011;32853;52.164;5.400;2023-07-28T14:15:58;5.53;;;1.40;;
47103;SDS011;32853;52.164;5.400;2023-07-28T14:18:23;9.02;;;2.65;;
47103;SDS011;32853;52.164;5.400;2023-07-28T14:20:49;2.10;;;1.35;;
47103;SDS011;32853;52.164;5.400;2023-07-28T14:23:21;3.25;;;1.20;;
47103;SDS011;32853;52.164;5.400;2023-07-28T14:25:50;3.78;;;1.48;;
47103;SDS011;32853;52.164;5.400;2023-07-28T14:28:16;2.28;;;1.40;;
47103;SDS011;32853;52.164;5.400;2023-07-28T14:30:41;7.80;;;1.80;;
47103;SDS011;32853;52.164;5.400;2023-07-28T14:33:11;2.80;;;1.42;;
47103;SDS011;32853;52.164;5.400;2023-07-28T14:35:41;4.93;;;2.00;;
47103;SDS011;32853;52.164;5.400;2023-07-28T14:38:07;6.15;;;1.67;;
47103;SDS011;32853;52.164;5.400;2023-07-28T14:40:32;6.90;;;2.00;;
47103;SDS011;32853;52.164;5.400;2023-07-28T14:42:58;2.90;;;1.52;;
47103;SDS011;32853;52.164;5.400;2023-07-28T14:45:23;5.65;;;1.60;;
47103;SDS011;32853;52.164;5.400;2023-07-28T14:47:48;3.17;;;1.63;;
47103;SDS011;32853;52.164;5.400;2023-07-28T14:50:14;6.90;;;1.60;;
47103;SDS011;32853;52.164;5.400;2023-07-28T14:52:39;7.43;;;1.58;;
47103;SDS011;32853;52.164;5.400;2023-07-28T14:55:04;7.35;;;1.65;;
47103;SDS011;32853;52.164;5.400;2023-07-28T14:57:30;3.55;;;1.70;;
47103;SDS011;32853;52.164;5.400;2023-07-28T14:59:55;7.00;;;1.70;;
47103;SDS011;32853;52.164;5.400;2023-07-28T15:02:20;5.60;;;2.13;;
47103;SDS011;32853;52.164;5.400;2023-07-28T15:04:46;5.70;;;2.58;;
47103;SDS011;32853;52.164;5.400;2023-07-28T15:07:13;3.58;;;2.03;;
47103;SDS011;32853;52.164;5.400;2023-07-28T15:09:39;7.82;;;3.83;;
47103;SDS011;32853;52.164;5.400;2023-07-28T15:12:05;8.95;;;3.60;;
47103;SDS011;32853;52.164;5.400;2023-07-28T15:14:31;5.75;;;3.30;;
47103;SDS011;32853;52.164;5.400;2023-07-28T15:16:56;9.07;;;4.50;;
47103;SDS011;32853;52.164;5.400;2023-07-28T15:19:21;4.63;;;3.17;;
47103;SDS011;32853;52.164;5.400;2023-07-28T15:21:47;6.53;;;3.20;;
47103;SDS011;32853;52.164;5.400;2023-07-28T15:24:12;5.57;;;2.78;;
47103;SDS011;32853;52.164;5.400;2023-07-28T15:26:38;6.20;;;2.88;;
47103;SDS011;32853;52.164;5.400;2023-07-28T15:29:04;7.85;;;3.97;;
47103;SDS011;32853;52.164;5.400;2023-07-28T15:31:30;8.63;;;3.58;;
47103;SDS011;32853;52.164;5.400;2023-07-28T15:33:58;9.77;;;3.95;;
47103;SDS011;32853;52.164;5.400;2023-07-28T15:36:23;12.23;;;4.22;;
47103;SDS011;32853;52.164;5.400;2023-07-28T15:38:48;5.85;;;3.53;;
47103;SDS011;32853;52.164;5.400;2023-07-28T15:41:14;7.28;;;3.70;;
47103;SDS011;32853;52.164;5.400;2023-07-28T15:43:39;10.50;;;3.80;;
47103;SDS011;32853;52.164;5.400;2023-07-28T15:46:04;6.15;;;3.28;;